createdAt,value
2017-08-08T00:00:19.837Z,55.71
2017-08-08T00:01:28.797Z,56.1
2017-08-08T00:02:38.955Z,56
2017-08-08T00:03:48.916Z,56.29
2017-08-08T00:04:57.907Z,55.81
2017-08-08T00:06:06.861Z,56.1
2017-08-08T00:07:16.223Z,56.48
2017-08-08T00:08:25.710Z,56.29
2017-08-08T00:09:34.669Z,56.87
2017-08-08T00:10:44.254Z,56.87
2017-08-08T00:11:53.288Z,56.87
2017-08-08T00:13:02.288Z,56.87
2017-08-08T00:14:11.613Z,56.77
2017-08-08T00:15:20.569Z,56.48
2017-08-08T00:16:29.746Z,56.48
2017-08-08T00:17:38.843Z,56.77
2017-08-08T00:18:47.878Z,56.67
2017-08-08T00:19:56.840Z,56.77
2017-08-08T00:21:06.489Z,56.67
2017-08-08T00:22:15.483Z,56.58
2017-08-08T00:23:24.447Z,56.67
2017-08-08T00:24:33.551Z,56.87
2017-08-08T00:25:42.745Z,56.58
2017-08-08T00:26:51.870Z,56.77
2017-08-08T00:28:00.914Z,56.55
2017-08-08T00:29:10.283Z,56.84
2017-08-08T00:30:19.374Z,57.13
2017-08-08T00:31:28.408Z,57.13
2017-08-08T00:32:37.505Z,57.35
2017-08-08T00:33:46.462Z,57.15
2017-08-08T00:34:55.935Z,57.13
2017-08-08T00:36:05.247Z,57.32
2017-08-08T00:37:14.205Z,57.13
2017-08-08T00:38:23.295Z,57.03
2017-08-08T00:39:32.288Z,57.15
2017-08-08T00:40:41.370Z,57.03
2017-08-08T00:41:50.453Z,57.22
2017-08-08T00:42:59.561Z,57.22
2017-08-08T00:44:08.587Z,57.03
2017-08-08T00:45:17.730Z,57.03
2017-08-08T00:46:26.842Z,57.13
2017-08-08T00:47:35.870Z,57.32
2017-08-08T00:48:44.956Z,57.03
2017-08-08T00:49:53.974Z,57.03
2017-08-08T00:51:03.381Z,57.6
2017-08-08T00:52:12.339Z,57.13
2017-08-08T00:53:21.518Z,57.13
2017-08-08T00:54:30.494Z,57.13
2017-08-08T00:55:39.773Z,57.6
2017-08-08T00:56:48.741Z,57.32
2017-08-08T00:57:57.700Z,57.03
2017-08-08T00:59:06.657Z,57.6
2017-08-08T01:00:15.612Z,57.42
2017-08-08T01:01:24.568Z,57.51
2017-08-08T01:02:33.529Z,57.42
2017-08-08T01:03:42.489Z,57.51
2017-08-08T01:04:51.448Z,57.8
2017-08-08T01:06:00.409Z,57.8
2017-08-08T01:07:09.373Z,57.42
2017-08-08T01:08:18.328Z,57.6
2017-08-08T01:09:27.281Z,57.7
2017-08-08T01:10:36.234Z,57.13
2017-08-08T01:11:45.186Z,57.13
2017-08-08T01:12:54.148Z,57.42
2017-08-08T01:14:03.122Z,57.32
2017-08-08T01:15:12.077Z,57.51
2017-08-08T01:16:21.033Z,57.7
2017-08-08T01:17:30.007Z,57.7
2017-08-08T01:18:38.959Z,57.42
2017-08-08T01:19:47.925Z,57.51
2017-08-08T01:20:56.886Z,57.32
2017-08-08T01:22:05.847Z,57.32
2017-08-08T01:23:14.815Z,58.15
2017-08-08T01:24:23.774Z,57.68
2017-08-08T01:25:32.735Z,58.25
2017-08-08T01:26:41.696Z,57.8
2017-08-08T01:27:50.651Z,57.97
2017-08-08T01:28:59.607Z,57.87
2017-08-08T01:30:08.568Z,57.99
2017-08-08T01:31:17.529Z,57.9
2017-08-08T01:32:26.492Z,57.8
2017-08-08T01:33:35.448Z,58.15
2017-08-08T01:34:44.407Z,58.28
2017-08-08T01:35:53.367Z,58.45
2017-08-08T01:37:02.325Z,58.15
2017-08-08T01:38:11.287Z,58.45
2017-08-08T01:39:20.588Z,58.06
2017-08-08T01:40:29.551Z,58.25
2017-08-08T01:41:38.518Z,58.25
2017-08-08T01:42:47.475Z,58.35
2017-08-08T01:43:56.445Z,58.45
2017-08-08T01:45:05.398Z,58.83
2017-08-08T01:46:14.371Z,58.64
2017-08-08T01:47:23.324Z,58.35
2017-08-08T01:48:32.281Z,58.83
2017-08-08T01:49:41.240Z,58.83
2017-08-08T01:50:50.200Z,58.83
2017-08-08T01:51:59.178Z,58.64
2017-08-08T01:53:08.153Z,58.54
2017-08-08T01:54:17.104Z,58.73
2017-08-08T01:55:26.053Z,58.83
2017-08-08T01:56:35.339Z,58.92
2017-08-08T01:57:44.323Z,58.73
2017-08-08T01:58:53.285Z,58.73
2017-08-08T02:00:02.240Z,58.92
2017-08-08T02:01:11.213Z,58.73
2017-08-08T02:02:20.173Z,58.64
2017-08-08T02:03:29.463Z,58.92
2017-08-08T02:04:38.417Z,58.73
2017-08-08T02:05:47.393Z,59.31
2017-08-08T02:06:56.363Z,59.31
2017-08-08T02:08:05.322Z,59.12
2017-08-08T02:09:14.288Z,59.12
2017-08-08T02:10:23.259Z,59.31
2017-08-08T02:11:32.224Z,59.31
2017-08-08T02:12:41.179Z,59.31
2017-08-08T02:13:50.146Z,59.41
2017-08-08T02:14:59.111Z,59.31
2017-08-08T02:16:08.424Z,59.31
2017-08-08T02:17:17.375Z,59.22
2017-08-08T02:18:26.340Z,59.22
2017-08-08T02:19:35.434Z,59.31
2017-08-08T02:20:44.399Z,59.41
2017-08-08T02:21:53.353Z,59.6
2017-08-08T02:23:02.304Z,59.5
2017-08-08T02:24:11.268Z,59.38
2017-08-08T02:25:20.228Z,59.79
2017-08-08T02:26:29.526Z,59.5
2017-08-08T02:27:38.484Z,59.28
2017-08-08T02:28:47.441Z,59.57
2017-08-08T02:29:56.395Z,59.57
2017-08-08T02:31:05.354Z,59.5
2017-08-08T02:32:14.320Z,59.38
2017-08-08T02:33:23.283Z,59.57
2017-08-08T02:34:32.243Z,59.66
2017-08-08T02:35:41.206Z,59.38
2017-08-08T02:36:50.159Z,59.47
2017-08-08T02:37:59.111Z,59.76
2017-08-08T02:39:08.070Z,59.66
2017-08-08T02:40:17.034Z,59.57
2017-08-08T02:41:26.002Z,59.76
2017-08-08T02:42:34.970Z,59.57
2017-08-08T02:43:43.945Z,59.57
2017-08-08T02:44:52.896Z,59.76
2017-08-08T02:46:02.184Z,60.05
2017-08-08T02:47:11.162Z,60.05
2017-08-08T02:48:20.127Z,59.86
2017-08-08T02:49:29.096Z,59.66
2017-08-08T02:50:38.061Z,60.05
2017-08-08T02:51:47.035Z,60.24
2017-08-08T02:52:55.993Z,59.95
2017-08-08T02:54:05.273Z,59.86
2017-08-08T02:55:14.231Z,60.05
2017-08-08T02:56:23.187Z,59.95
2017-08-08T02:57:32.145Z,59.76
2017-08-08T02:58:41.099Z,59.86
2017-08-08T02:59:50.059Z,60.24
2017-08-08T03:00:59.013Z,60.14
2017-08-08T03:02:07.977Z,60.24
2017-08-08T03:03:16.946Z,60.24
2017-08-08T03:04:25.934Z,60.34
2017-08-08T03:05:35.226Z,60.24
2017-08-08T03:06:44.178Z,60.05
2017-08-08T03:07:53.140Z,60.05
2017-08-08T03:09:02.092Z,60.14
2017-08-08T03:10:11.046Z,59.86
2017-08-08T03:11:19.999Z,60.34
2017-08-08T03:12:28.961Z,60.24
2017-08-08T03:13:37.938Z,60.53
2017-08-08T03:14:46.899Z,60.24
2017-08-08T03:15:56.171Z,60.91
2017-08-08T03:17:05.139Z,61.01
2017-08-08T03:18:14.095Z,60.82
2017-08-08T03:19:23.049Z,61.01
2017-08-08T03:20:32.007Z,60.82
2017-08-08T03:21:40.993Z,60.53
2017-08-08T03:22:49.954Z,60.72
2017-08-08T03:23:58.911Z,60.4
2017-08-08T03:25:07.870Z,60.72
2017-08-08T03:26:16.835Z,60.82
2017-08-08T03:27:25.802Z,60.91
2017-08-08T03:28:34.757Z,61.2
2017-08-08T03:29:43.714Z,60.78
2017-08-08T03:30:52.683Z,60.98
2017-08-08T03:32:01.647Z,60.69
2017-08-08T03:33:10.598Z,60.78
2017-08-08T03:34:19.883Z,60.78
2017-08-08T03:35:28.839Z,60.78
2017-08-08T03:36:37.808Z,60.98
2017-08-08T03:37:46.770Z,61.36
2017-08-08T03:38:55.727Z,61.17
2017-08-08T03:40:04.717Z,61.08
2017-08-08T03:41:13.674Z,61.27
2017-08-08T03:42:22.631Z,61.17
2017-08-08T03:43:31.599Z,61.46
2017-08-08T03:44:40.560Z,61.36
2017-08-08T03:45:49.513Z,61.36
2017-08-08T03:46:58.465Z,61.46
2017-08-08T03:48:07.423Z,61.84
2017-08-08T03:49:16.390Z,61.75
2017-08-08T03:50:25.665Z,61.84
2017-08-08T03:51:34.639Z,61.65
2017-08-08T03:52:43.594Z,61.94
2017-08-08T03:53:52.550Z,61.94
2017-08-08T03:55:01.509Z,62.42
2017-08-08T03:56:10.481Z,62.52
2017-08-08T03:57:19.770Z,62.13
2017-08-08T03:58:29.051Z,62.32
2017-08-08T03:59:38.015Z,62.23
2017-08-08T04:00:46.984Z,62.04
2017-08-08T04:01:55.937Z,62.71
2017-08-08T04:03:04.889Z,62.71
2017-08-08T04:04:13.841Z,62.81
2017-08-08T04:05:22.799Z,62.81
2017-08-08T04:06:31.767Z,62.71
2017-08-08T04:07:40.718Z,62.32
2017-08-08T04:08:49.679Z,62.71
2017-08-08T04:09:58.643Z,62.52
2017-08-08T04:11:07.603Z,62.71
2017-08-08T04:12:16.566Z,62.52
2017-08-08T04:13:25.525Z,62.52
2017-08-08T04:14:34.484Z,62.61
2017-08-08T04:15:43.442Z,62.71
2017-08-08T04:16:52.400Z,62.71
2017-08-08T04:18:01.682Z,62.61
2017-08-08T04:19:10.648Z,62.61
2017-08-08T04:20:19.938Z,62.52
2017-08-08T04:21:28.898Z,62.61
2017-08-08T04:22:37.856Z,63.19
2017-08-08T04:23:46.806Z,62.99
2017-08-08T04:24:55.775Z,62.99
2017-08-08T04:26:04.735Z,63.09
2017-08-08T04:27:13.699Z,63.19
2017-08-08T04:28:22.656Z,63.19
2017-08-08T04:29:31.634Z,63.09
2017-08-08T04:30:40.599Z,63.19
2017-08-08T04:31:49.561Z,63.19
2017-08-08T04:32:58.527Z,63.19
2017-08-08T04:34:07.478Z,63.09
2017-08-08T04:35:16.428Z,62.99
2017-08-08T04:36:25.388Z,62.9
2017-08-08T04:37:34.355Z,63.28
2017-08-08T04:38:43.302Z,62.99
2017-08-08T04:39:52.262Z,62.81
2017-08-08T04:41:01.216Z,62.42
2017-08-08T04:42:10.172Z,62.52
2017-08-08T04:43:19.118Z,62.71
2017-08-08T04:44:28.078Z,62.71
2017-08-08T04:45:37.039Z,62.61
2017-08-08T04:46:45.994Z,62.61
2017-08-08T04:47:54.947Z,62.71
2017-08-08T04:49:04.232Z,62.9
2017-08-08T04:50:13.199Z,62.71
2017-08-08T04:51:22.151Z,62.61
2017-08-08T04:52:31.101Z,62.71
2017-08-08T04:53:40.063Z,62.9
2017-08-08T04:54:49.029Z,62.61
2017-08-08T04:55:58.315Z,62.04
2017-08-08T04:57:07.273Z,62.61
2017-08-08T04:58:16.229Z,62.61
2017-08-08T04:59:25.181Z,62.61
2017-08-08T05:00:34.129Z,62.04
2017-08-08T05:01:43.087Z,62.04
2017-08-08T05:02:52.051Z,62.42
2017-08-08T05:04:01.006Z,62.23
2017-08-08T05:05:09.959Z,62.16
2017-08-08T05:06:18.912Z,62.45
2017-08-08T05:07:27.869Z,62.45
2017-08-08T05:08:36.828Z,62.32
2017-08-08T05:09:45.780Z,62.16
2017-08-08T05:10:54.742Z,62.35
2017-08-08T05:12:03.701Z,62.32
2017-08-08T05:13:12.659Z,62.26
2017-08-08T05:14:21.611Z,62.42
2017-08-08T05:15:30.574Z,62.35
2017-08-08T05:16:39.547Z,62.13
2017-08-08T05:17:48.539Z,62.16
2017-08-08T05:18:57.497Z,62.45
2017-08-08T05:20:06.472Z,62.16
2017-08-08T05:21:15.429Z,62.45
2017-08-08T05:22:24.385Z,62.45
2017-08-08T05:23:33.347Z,61.97
2017-08-08T05:24:42.625Z,61.87
2017-08-08T05:25:51.581Z,61.68
2017-08-08T05:27:00.545Z,61.97
2017-08-08T05:28:09.502Z,61.68
2017-08-08T05:29:18.462Z,61.78
2017-08-08T05:30:27.431Z,61.78
2017-08-08T05:31:36.390Z,61.58
2017-08-08T05:32:45.678Z,61.68
2017-08-08T05:33:54.637Z,61.68
2017-08-08T05:35:03.592Z,61.78
2017-08-08T05:36:12.879Z,61.58
2017-08-08T05:37:22.165Z,61.78
2017-08-08T05:38:31.450Z,61.97
2017-08-08T05:39:40.402Z,61.68
2017-08-08T05:40:49.355Z,62.16
2017-08-08T05:41:58.322Z,62.16
2017-08-08T05:43:07.278Z,61.78
2017-08-08T05:44:16.238Z,61.58
2017-08-08T05:45:25.199Z,61.87
2017-08-08T05:46:34.192Z,62.07
2017-08-08T05:47:43.148Z,61.49
2017-08-08T05:48:52.111Z,61.3
2017-08-08T05:50:01.064Z,61.49
2017-08-08T05:51:10.016Z,61.49
2017-08-08T05:52:18.973Z,61.58
2017-08-08T05:53:27.932Z,61.52
2017-08-08T05:54:36.883Z,62.1
2017-08-08T05:55:45.837Z,61.81
2017-08-08T05:56:54.798Z,61.61
2017-08-08T05:58:03.754Z,62
2017-08-08T05:59:12.711Z,62
2017-08-08T06:00:21.673Z,62
2017-08-08T06:01:30.629Z,61.43
2017-08-08T06:02:39.590Z,61.43
2017-08-08T06:03:48.552Z,60.85
2017-08-08T06:04:57.507Z,60.85
2017-08-08T06:06:06.462Z,61.14
2017-08-08T06:07:15.448Z,60.85
2017-08-08T06:08:24.412Z,60.85
2017-08-08T06:09:33.374Z,60.88
2017-08-08T06:10:42.331Z,60.97
2017-08-08T06:11:51.284Z,61.07
2017-08-08T06:13:00.238Z,59.92
2017-08-08T06:14:09.535Z,60.49
2017-08-08T06:15:18.500Z,60.01
2017-08-08T06:16:27.460Z,59.82
2017-08-08T06:17:36.547Z,59.72
2017-08-08T06:18:45.605Z,59.53
2017-08-08T06:19:54.562Z,59.53
2017-08-08T06:21:04.044Z,58.76
2017-08-08T06:22:13.094Z,58.86
2017-08-08T06:23:22.066Z,58.28
2017-08-08T06:24:31.022Z,57.9
2017-08-08T06:25:40.000Z,58.12
2017-08-08T06:26:48.968Z,58.22
2017-08-08T06:27:57.930Z,57.73
2017-08-08T06:29:07.555Z,57.06
2017-08-08T06:30:16.554Z,57.35
2017-08-08T06:31:25.842Z,56.77
2017-08-08T06:32:34.801Z,56.87
2017-08-08T06:33:43.758Z,56
2017-08-08T06:34:52.719Z,55.52
2017-08-08T06:36:01.685Z,55.62
2017-08-08T06:37:10.717Z,55.04
2017-08-08T06:38:20.079Z,54.27
2017-08-08T06:39:29.043Z,53.91
2017-08-08T06:40:38.560Z,53.88
2017-08-08T06:41:47.745Z,54.2
2017-08-08T06:42:56.698Z,53.81
2017-08-08T06:44:05.752Z,54.1
2017-08-08T06:45:14.882Z,54.2
2017-08-08T06:46:24.235Z,54.2
2017-08-08T06:47:33.212Z,54.1
2017-08-08T06:48:42.354Z,53.91
2017-08-08T06:49:51.504Z,54.1
2017-08-08T06:51:00.607Z,53.62
2017-08-08T06:52:09.558Z,53.43
2017-08-08T06:53:18.610Z,53.23
2017-08-08T06:54:28.124Z,53.53
2017-08-08T06:55:37.362Z,53.43
2017-08-08T06:56:46.644Z,53.05
2017-08-08T06:57:55.704Z,53.27
2017-08-08T06:59:04.711Z,53.27
2017-08-08T07:00:13.675Z,53.23
2017-08-08T07:01:22.639Z,53.07
2017-08-08T07:02:31.601Z,52.87
2017-08-08T07:03:40.768Z,52.69
2017-08-08T07:04:49.968Z,52.49
2017-08-08T07:05:58.972Z,52.97
2017-08-08T07:07:08.156Z,52.2
2017-08-08T07:08:17.386Z,52.49
2017-08-08T07:09:26.348Z,52.49
2017-08-08T07:10:35.370Z,52.49
2017-08-08T07:11:44.409Z,51.92
2017-08-08T07:12:53.432Z,52.11
2017-08-08T07:14:02.530Z,51.92
2017-08-08T07:15:11.577Z,52.49
2017-08-08T07:16:20.531Z,52.49
2017-08-08T07:17:29.669Z,52.52
2017-08-08T07:18:38.634Z,52.71
2017-08-08T07:19:47.913Z,52.71
2017-08-08T07:20:57.111Z,52.52
2017-08-08T07:22:06.069Z,52.61
2017-08-08T07:23:15.112Z,52.52
2017-08-08T07:24:24.128Z,52.42
2017-08-08T07:25:33.094Z,51.94
2017-08-08T07:26:42.107Z,51.94
2017-08-08T07:27:51.078Z,51.94
2017-08-08T07:29:00.084Z,51.94
2017-08-08T07:30:09.085Z,51.65
2017-08-08T07:31:18.361Z,51.94
2017-08-08T07:32:27.717Z,51.84
2017-08-08T07:33:36.877Z,51.94
2017-08-08T07:34:45.848Z,52.04
2017-08-08T07:35:54.863Z,52.33
2017-08-08T07:37:04.247Z,52.04
2017-08-08T07:38:13.264Z,51.84
2017-08-08T07:39:22.267Z,52.13
2017-08-08T07:40:31.384Z,51.84
2017-08-08T07:41:40.694Z,51.65
2017-08-08T07:42:50.037Z,51.94
2017-08-08T07:43:59.065Z,51.94
2017-08-08T07:45:08.345Z,51.84
2017-08-08T07:46:17.375Z,52.13
2017-08-08T07:47:26.338Z,51.75
2017-08-08T07:48:35.295Z,52.04
2017-08-08T07:49:44.298Z,51.65
2017-08-08T07:50:53.342Z,51.68
2017-08-08T07:52:02.305Z,51.58
2017-08-08T07:53:11.272Z,51.58
2017-08-08T07:54:20.235Z,51.2
2017-08-08T07:55:29.314Z,51.22
2017-08-08T07:56:38.423Z,51.03
2017-08-08T07:57:47.565Z,50.54
2017-08-08T07:58:56.556Z,50.64
2017-08-08T08:00:05.514Z,50.84
2017-08-08T08:01:14.541Z,50.93
2017-08-08T08:02:23.695Z,50.74
2017-08-08T08:03:32.738Z,50.74
2017-08-08T08:04:41.837Z,50.64
2017-08-08T08:05:50.912Z,50.54
2017-08-08T08:07:00.044Z,50.54
2017-08-08T08:08:09.049Z,50.26
2017-08-08T08:09:18.204Z,50.74
2017-08-08T08:10:27.160Z,50.74
2017-08-08T08:11:36.280Z,50.45
2017-08-08T08:12:45.284Z,50.64
2017-08-08T08:13:54.438Z,50.45
2017-08-08T08:15:03.440Z,50.54
2017-08-08T08:16:12.473Z,50.54
2017-08-08T08:17:21.458Z,49.87
2017-08-08T08:18:30.477Z,49.68
2017-08-08T08:19:39.459Z,49.68
2017-08-08T08:20:48.476Z,49.9
2017-08-08T08:21:57.471Z,49.7
2017-08-08T08:23:06.490Z,49.6
2017-08-08T08:24:15.533Z,49.9
2017-08-08T08:25:24.559Z,49.6
2017-08-08T08:26:33.603Z,49.51
2017-08-08T08:27:42.686Z,49.41
2017-08-08T08:28:51.740Z,48.54
2017-08-08T08:30:00.785Z,48.25
2017-08-08T08:31:10.143Z,48.44
2017-08-08T08:32:19.689Z,48.64
2017-08-08T08:33:28.691Z,48.54
2017-08-08T08:34:37.767Z,48.35
2017-08-08T08:35:46.842Z,48.44
2017-08-08T08:36:55.883Z,48.16
2017-08-08T08:38:05.082Z,48.06
2017-08-08T08:39:14.134Z,47.96
2017-08-08T08:40:23.187Z,48.16
2017-08-08T08:41:32.253Z,48.16
2017-08-08T08:42:41.291Z,47.38
2017-08-08T08:43:50.619Z,47.99
2017-08-08T08:44:59.643Z,48.18
2017-08-08T08:46:08.626Z,47.99
2017-08-08T08:47:17.697Z,47.31
2017-08-08T08:48:26.727Z,47.7
2017-08-08T08:49:35.825Z,47.31
2017-08-08T08:50:45.161Z,46.64
2017-08-08T08:51:54.260Z,47.22
2017-08-08T08:53:03.228Z,46.92
2017-08-08T08:54:12.624Z,46.83
2017-08-08T08:55:21.628Z,46.73
2017-08-08T08:56:30.812Z,47.12
2017-08-08T08:57:39.886Z,46.73
2017-08-08T08:58:48.905Z,47.12
2017-08-08T08:59:58.006Z,46.83
2017-08-08T09:01:06.965Z,46.73
2017-08-08T09:02:16.086Z,46.83
2017-08-08T09:03:25.117Z,46.83
2017-08-08T09:04:34.209Z,46.73
2017-08-08T09:05:43.208Z,46.85
2017-08-08T09:06:52.225Z,46.44
2017-08-08T09:08:01.188Z,47.12
2017-08-08T09:09:10.154Z,46.66
2017-08-08T09:10:19.122Z,46.47
2017-08-08T09:11:28.401Z,46.47
2017-08-08T09:12:37.363Z,45.98
2017-08-08T09:13:46.320Z,45.31
2017-08-08T09:14:55.272Z,45.5
2017-08-08T09:16:04.233Z,45.31
2017-08-08T09:17:13.191Z,45.21
2017-08-08T09:18:22.467Z,45.31
2017-08-08T09:19:32.370Z,45.59
2017-08-08T09:20:41.540Z,46.27
2017-08-08T09:21:50.598Z,46.47
2017-08-08T09:22:59.928Z,47.14
2017-08-08T09:24:08.984Z,46.56
2017-08-08T09:25:17.942Z,46
2017-08-08T09:26:26.933Z,46.75
2017-08-08T09:27:35.911Z,46.56
2017-08-08T09:28:44.882Z,46.75
2017-08-08T09:29:53.841Z,46.95
2017-08-08T09:31:02.804Z,46.75
2017-08-08T09:32:11.887Z,46.58
2017-08-08T09:33:20.857Z,46.97
2017-08-08T09:34:29.839Z,47.07
2017-08-08T09:35:38.905Z,47.16
2017-08-08T09:36:47.859Z,46.39
2017-08-08T09:37:56.880Z,46.49
2017-08-08T09:39:05.927Z,45.91
2017-08-08T09:40:14.955Z,45.81
2017-08-08T09:41:23.911Z,45.91
2017-08-08T09:42:32.961Z,45.91
2017-08-08T09:43:41.921Z,45.42
2017-08-08T09:44:50.894Z,45.33
2017-08-08T09:45:59.960Z,45.33
2017-08-08T09:47:09.507Z,45.16
2017-08-08T09:48:18.534Z,45.45
2017-08-08T09:49:27.531Z,45.45
2017-08-08T09:50:36.488Z,44.84
2017-08-08T09:51:45.803Z,45.33
2017-08-08T09:52:54.844Z,45.35
2017-08-08T09:54:03.944Z,45.35
2017-08-08T09:55:12.957Z,45.54
2017-08-08T09:56:21.917Z,45.35
2017-08-08T09:57:30.878Z,45.45
2017-08-08T09:58:39.846Z,45.54
2017-08-08T09:59:48.808Z,46.03
2017-08-08T10:00:57.766Z,45.54
2017-08-08T10:02:06.733Z,45.16
2017-08-08T10:03:15.778Z,44.09
2017-08-08T10:04:24.738Z,43.9
2017-08-08T10:05:33.706Z,43.61
2017-08-08T10:06:42.824Z,43.71
2017-08-08T10:07:51.783Z,43.71
2017-08-08T10:09:00.751Z,44.19
2017-08-08T10:10:09.721Z,44.19
2017-08-08T10:11:18.706Z,44.19
2017-08-08T10:12:27.666Z,44.4
2017-08-08T10:13:36.955Z,43.92
2017-08-08T10:14:45.909Z,44.09
2017-08-08T10:15:54.874Z,44.31
2017-08-08T10:17:03.839Z,44.12
2017-08-08T10:18:12.807Z,44.21
2017-08-08T10:19:21.776Z,44.31
2017-08-08T10:20:30.746Z,44.4
2017-08-08T10:21:39.713Z,44.89
2017-08-08T10:22:48.672Z,44.7
2017-08-08T10:23:57.636Z,44.5
2017-08-08T10:25:06.922Z,44.79
2017-08-08T10:26:15.883Z,44.79
2017-08-08T10:27:24.845Z,44.98
2017-08-08T10:28:34.134Z,44.89
2017-08-08T10:29:43.092Z,44.79
2017-08-08T10:30:52.399Z,44.98
2017-08-08T10:32:02.079Z,44.89
2017-08-08T10:33:12.783Z,45.28
2017-08-08T10:34:23.002Z,45.47
2017-08-08T10:35:34.499Z,45.57
2017-08-08T10:36:48.071Z,45.37
2017-08-08T10:38:01.574Z,45.57
2017-08-08T10:39:15.219Z,45.28
2017-08-08T10:40:28.376Z,45.28
2017-08-08T10:41:40.661Z,45.57
2017-08-08T10:42:53.571Z,45.49
2017-08-08T10:44:05.911Z,45.66
2017-08-08T10:45:17.588Z,45.98
2017-08-08T10:46:30.878Z,45.78
2017-08-08T10:47:44.418Z,46.08
2017-08-08T10:48:57.215Z,46.17
2017-08-08T10:50:10.909Z,45.98
2017-08-08T10:51:23.295Z,45.88
2017-08-08T10:52:36.103Z,46.17
2017-08-08T10:53:48.703Z,46.36
2017-08-08T10:55:01.826Z,46.94
2017-08-08T10:56:14.627Z,46.56
2017-08-08T10:57:27.262Z,47.14
2017-08-08T10:58:37.637Z,46.94
2017-08-08T10:59:50.788Z,46.66
2017-08-08T11:01:03.126Z,47.04
2017-08-08T11:02:15.623Z,46.84
2017-08-08T11:03:27.908Z,46.66
2017-08-08T11:04:40.638Z,46.75
2017-08-08T11:05:53.433Z,47.43
2017-08-08T11:07:05.181Z,47.33
2017-08-08T11:08:17.110Z,48.01
2017-08-08T11:09:29.864Z,47.81
2017-08-08T11:10:41.860Z,47.72
2017-08-08T11:11:53.193Z,47.62
2017-08-08T11:13:05.068Z,47.84
2017-08-08T11:14:18.512Z,48.03
2017-08-08T11:15:30.736Z,47.55
2017-08-08T11:16:43.841Z,48.32
2017-08-08T11:17:56.625Z,48.3
2017-08-08T11:19:08.265Z,48.71
2017-08-08T11:20:19.658Z,48.71
2017-08-08T11:21:32.733Z,48.52
2017-08-08T11:22:44.491Z,48.03
2017-08-08T11:23:58.321Z,48.32
2017-08-08T11:25:11.850Z,48.32
2017-08-08T11:26:24.666Z,48.52
2017-08-08T11:27:37.886Z,48.9
2017-08-08T11:28:48.386Z,49.1
2017-08-08T11:29:59.466Z,49.39
2017-08-08T11:31:12.932Z,49.19
2017-08-08T11:32:24.743Z,49.49
2017-08-08T11:33:37.964Z,49.39
2017-08-08T11:34:50.203Z,49.29
2017-08-08T11:36:03.338Z,49.49
2017-08-08T11:37:15.444Z,49.39
2017-08-08T11:38:28.936Z,49.49
2017-08-08T11:39:41.028Z,49.68
2017-08-08T11:40:54.415Z,49.97
2017-08-08T11:42:08.073Z,49.77
2017-08-08T11:43:20.493Z,50.07
2017-08-08T11:44:33.174Z,49.97
2017-08-08T11:45:44.247Z,49.77
2017-08-08T11:46:53.905Z,49.9
2017-08-08T11:48:03.248Z,49.99
2017-08-08T11:49:12.987Z,49.12
2017-08-08T11:50:22.429Z,48.74
2017-08-08T11:51:32.804Z,48.93
2017-08-08T11:52:42.282Z,48.35
2017-08-08T11:53:52.287Z,48.15
2017-08-08T11:55:02.144Z,48.06
2017-08-08T11:56:12.182Z,48.25
2017-08-08T11:57:21.912Z,48.35
2017-08-08T11:58:31.169Z,48.44
2017-08-08T11:59:40.770Z,47.57
2017-08-08T12:00:50.236Z,47.96
2017-08-08T12:01:59.823Z,47.47
2017-08-08T12:03:09.237Z,46.8
2017-08-08T12:04:18.960Z,47.09
2017-08-08T12:05:28.549Z,46.89
2017-08-08T12:06:38.111Z,46.89
2017-08-08T12:07:48.419Z,46.99
2017-08-08T12:09:01.008Z,46.99
2017-08-08T12:10:10.273Z,46.89
2017-08-08T12:11:20.034Z,46.8
2017-08-08T12:12:29.278Z,46.89
2017-08-08T12:13:38.265Z,46.02
2017-08-08T12:14:47.277Z,46.12
2017-08-08T12:15:56.260Z,45.25
2017-08-08T12:17:05.243Z,45.44
2017-08-08T12:18:14.219Z,44.68
2017-08-08T12:19:23.203Z,45.07
2017-08-08T12:20:32.226Z,44.88
2017-08-08T12:21:41.206Z,44.88
2017-08-08T12:22:50.188Z,45.56
2017-08-08T12:23:59.193Z,45.37
2017-08-08T12:25:08.185Z,45.47
2017-08-08T12:26:17.178Z,45.37
2017-08-08T12:27:26.168Z,45.27
2017-08-08T12:28:35.159Z,46.12
2017-08-08T12:29:44.158Z,45.92
2017-08-08T12:30:53.144Z,46.02
2017-08-08T12:32:02.127Z,45.83
2017-08-08T12:33:11.123Z,45.95
2017-08-08T12:34:20.103Z,45.92
2017-08-08T12:35:29.085Z,45.83
2017-08-08T12:36:38.071Z,45.83
2017-08-08T12:37:47.064Z,45.95
2017-08-08T12:38:56.055Z,45.92
2017-08-08T12:40:05.043Z,46.04
2017-08-08T12:41:14.028Z,45.75
2017-08-08T12:42:23.012Z,46.14
2017-08-08T12:43:31.996Z,45.85
2017-08-08T12:44:40.983Z,45.85
2017-08-08T12:45:49.959Z,45.17
2017-08-08T12:46:58.939Z,45.47
2017-08-08T12:48:07.944Z,45.47
2017-08-08T12:49:16.937Z,45.37
2017-08-08T12:50:25.922Z,45.37
2017-08-08T12:51:34.898Z,45.56
2017-08-08T12:52:43.884Z,45.65
2017-08-08T12:53:52.875Z,45.47
2017-08-08T12:55:01.898Z,45.37
2017-08-08T12:56:10.900Z,44.98
2017-08-08T12:57:19.879Z,44.78
2017-08-08T12:58:28.868Z,44.49
2017-08-08T12:59:37.852Z,44.68
2017-08-08T13:00:46.831Z,44.1
2017-08-08T13:01:55.818Z,44.1
2017-08-08T13:03:04.810Z,44.59
2017-08-08T13:04:13.789Z,44.59
2017-08-08T13:05:22.788Z,44.4
2017-08-08T13:06:31.776Z,44.2
2017-08-08T13:07:40.760Z,44.59
2017-08-08T13:08:49.748Z,44.2
2017-08-08T13:09:58.729Z,43.62
2017-08-08T13:11:07.724Z,43.62
2017-08-08T13:12:16.705Z,43.62
2017-08-08T13:13:25.707Z,44.01
2017-08-08T13:14:34.699Z,43.82
2017-08-08T13:15:43.693Z,44.4
2017-08-08T13:16:52.680Z,44.4
2017-08-08T13:18:01.664Z,44.42
2017-08-08T13:19:10.650Z,44.2
2017-08-08T13:20:19.640Z,43.93
2017-08-08T13:21:28.636Z,43.91
2017-08-08T13:22:37.627Z,44.13
2017-08-08T13:23:46.619Z,44.4
2017-08-08T13:24:55.606Z,44.3
2017-08-08T13:26:04.595Z,43.33
2017-08-08T13:27:13.588Z,43.33
2017-08-08T13:28:22.573Z,43.54
2017-08-08T13:29:31.556Z,43.26
2017-08-08T13:30:40.545Z,43.06
2017-08-08T13:31:49.525Z,43.06
2017-08-08T13:32:58.514Z,42.57
2017-08-08T13:34:07.511Z,42.77
2017-08-08T13:35:16.490Z,42.86
2017-08-08T13:36:25.800Z,42.67
2017-08-08T13:37:34.788Z,42.38
2017-08-08T13:38:43.772Z,42.38
2017-08-08T13:39:52.957Z,42.48
2017-08-08T13:41:01.969Z,42.65
2017-08-08T13:42:10.936Z,42.38
2017-08-08T13:43:19.906Z,42.57
2017-08-08T13:44:28.871Z,42.77
2017-08-08T13:45:37.875Z,42.77
2017-08-08T13:46:46.839Z,42.67
2017-08-08T13:47:55.812Z,42.96
2017-08-08T13:49:04.801Z,42.48
2017-08-08T13:50:13.910Z,42.77
2017-08-08T13:51:23.200Z,43.16
2017-08-08T13:52:32.236Z,43.54
2017-08-08T13:53:41.243Z,43.54
2017-08-08T13:54:50.597Z,43.45
2017-08-08T13:55:59.654Z,43.35
2017-08-08T13:57:08.688Z,43.84
2017-08-08T13:58:17.991Z,43.84
2017-08-08T13:59:27.262Z,43.93
2017-08-08T14:00:36.341Z,43.45
2017-08-08T14:01:45.383Z,43.64
2017-08-08T14:02:54.543Z,43.45
2017-08-08T14:04:03.662Z,43.74
2017-08-08T14:05:12.692Z,43.45
2017-08-08T14:06:21.984Z,43.45
2017-08-08T14:07:31.008Z,43.64
2017-08-08T14:08:39.962Z,43.43
2017-08-08T14:09:48.946Z,43.54
2017-08-08T14:10:58.039Z,43.93
2017-08-08T14:12:07.008Z,44.23
2017-08-08T14:13:15.970Z,44.03
2017-08-08T14:14:24.930Z,44.23
2017-08-08T14:15:33.898Z,44.03
2017-08-08T14:16:42.875Z,44.42
2017-08-08T14:17:51.851Z,44.23
2017-08-08T14:19:00.812Z,44.32
2017-08-08T14:20:09.799Z,44.71
2017-08-08T14:21:18.758Z,44.71
2017-08-08T14:22:27.731Z,45.1
2017-08-08T14:23:36.706Z,44.61
2017-08-08T14:24:45.676Z,44.61
2017-08-08T14:25:54.660Z,44.51
2017-08-08T14:27:03.645Z,45
2017-08-08T14:28:12.668Z,44.51
2017-08-08T14:29:21.701Z,44.42
2017-08-08T14:30:30.779Z,44.71
2017-08-08T14:31:39.771Z,44.61
2017-08-08T14:32:48.790Z,45
2017-08-08T14:33:57.812Z,44.9
2017-08-08T14:35:06.842Z,44.9
2017-08-08T14:36:15.845Z,45.29
2017-08-08T14:37:24.873Z,45.58
2017-08-08T14:38:33.886Z,44.81
2017-08-08T14:39:42.875Z,45
2017-08-08T14:40:51.872Z,44.71
2017-08-08T14:42:00.884Z,45.2
2017-08-08T14:43:09.899Z,45
2017-08-08T14:44:18.891Z,45
2017-08-08T14:45:27.885Z,44.71
2017-08-08T14:46:37.185Z,44.9
2017-08-08T14:47:46.180Z,44.71
2017-08-08T14:48:55.157Z,45
2017-08-08T14:50:04.113Z,45
2017-08-08T14:51:13.065Z,45.58
2017-08-08T14:52:22.117Z,44.9
2017-08-08T14:53:31.436Z,44.81
2017-08-08T14:54:40.530Z,45.68
2017-08-08T14:55:49.708Z,45.2
2017-08-08T14:56:58.914Z,44.9